sensor_id;sensor_type;location;lat;lon;timestamp;pressure;altitude;pressure_sealevel;temperature;humidity
6224;BME280;3145;42.726;23.342;2023-06-22T00:01:15;71888.13;;;-142.70;72.37
6224;BME280;3145;42.726;23.342;2023-06-22T00:03:42;71892.16;;;-142.70;72.39
6224;BME280;3145;42.726;23.342;2023-06-22T00:06:09;71906.25;;;-142.70;72.85
6224;BME280;3145;42.726;23.342;2023-06-22T00:08:36;71908.25;;;-142.70;72.87
6224;BME280;3145;42.726;23.342;2023-06-22T00:11:02;71908.25;;;-142.70;72.86
6224;BME280;3145;42.726;23.342;2023-06-22T00:13:30;71900.19;;;-142.70;72.57
6224;BME280;3145;42.726;23.342;2023-06-22T00:15:57;71912.28;;;-142.70;72.78
6224;BME280;3145;42.726;23.342;2023-06-22T00:18:24;71914.28;;;-142.70;73.46
6224;BME280;3145;42.726;23.342;2023-06-22T00:20:54;71914.28;;;-142.70;73.81
6224;BME280;3145;42.726;23.342;2023-06-22T00:23:23;71920.34;;;-142.70;74.00
6224;BME280;3145;42.726;23.342;2023-06-22T00:25:50;71920.34;;;-142.70;73.83
6224;BME280;3145;42.726;23.342;2023-06-22T00:28:17;71918.31;;;-142.70;74.10
6224;BME280;3145;42.726;23.342;2023-06-22T00:30:45;71926.38;;;-142.70;73.35
6224;BME280;3145;42.726;23.342;2023-06-22T00:33:13;71936.44;;;-142.70;72.53
6224;BME280;3145;42.726;23.342;2023-06-22T00:35:41;71936.44;;;-142.70;72.82
6224;BME280;3145;42.726;23.342;2023-06-22T00:38:08;71936.44;;;-142.70;73.05
6224;BME280;3145;42.726;23.342;2023-06-22T00:40:35;71932.44;;;-142.70;72.40
6224;BME280;3145;42.726;23.342;2023-06-22T00:43:02;71940.47;;;-142.70;71.72
6224;BME280;3145;42.726;23.342;2023-06-22T00:45:28;71952.56;;;-142.70;71.90
6224;BME280;3145;42.726;23.342;2023-06-22T00:47:57;71964.66;;;-142.70;72.84
6224;BME280;3145;42.726;23.342;2023-06-22T00:50:26;71976.75;;;-142.70;72.85
6224;BME280;3145;42.726;23.342;2023-06-22T00:52:55;72008.97;;;-142.70;73.71
6224;BME280;3145;42.726;23.342;2023-06-22T00:55:24;72004.94;;;-142.70;73.97
6224;BME280;3145;42.726;23.342;2023-06-22T00:57:51;72004.94;;;-142.70;75.51
6224;BME280;3145;42.726;23.342;2023-06-22T01:00:22;72002.91;;;-142.70;76.57
6224;BME280;3145;42.726;23.342;2023-06-22T01:02:50;72010.97;;;-142.70;76.57
6224;BME280;3145;42.726;23.342;2023-06-22T01:05:19;72000.91;;;-142.70;75.74
6224;BME280;3145;42.726;23.342;2023-06-22T01:07:56;71992.84;;;-142.70;76.29
6224;BME280;3145;42.726;23.342;2023-06-22T01:10:30;71984.78;;;-142.70;76.73
6224;BME280;3145;42.726;23.342;2023-06-22T01:13:04;71992.84;;;-142.70;77.03
6224;BME280;3145;42.726;23.342;2023-06-22T01:15:36;71996.88;;;-142.70;76.14
6224;BME280;3145;42.726;23.342;2023-06-22T01:18:05;71992.84;;;-142.70;76.37
6224;BME280;3145;42.726;23.342;2023-06-22T01:20:36;71988.81;;;-142.70;76.57
6224;BME280;3145;42.726;23.342;2023-06-22T01:23:09;71992.84;;;-142.70;76.81
6224;BME280;3145;42.726;23.342;2023-06-22T01:25:45;71980.75;;;-142.70;76.38
6224;BME280;3145;42.726;23.342;2023-06-22T01:28:23;71986.81;;;-142.70;76.32
6224;BME280;3145;42.726;23.342;2023-06-22T01:30:53;72000.91;;;-142.70;76.39
6224;BME280;3145;42.726;23.342;2023-06-22T01:33:29;72010.97;;;-142.70;76.52
6224;BME280;3145;42.726;23.342;2023-06-22T01:35:58;72000.91;;;-142.70;77.27
6224;BME280;3145;42.726;23.342;2023-06-22T01:38:27;72002.91;;;-142.70;77.32
6224;BME280;3145;42.726;23.342;2023-06-22T01:40:55;72006.94;;;-142.70;77.33
6224;BME280;3145;42.726;23.342;2023-06-22T01:43:22;72004.94;;;-142.70;77.32
6224;BME280;3145;42.726;23.342;2023-06-22T01:45:53;72021.06;;;-142.70;77.08
6224;BME280;3145;42.726;23.342;2023-06-22T01:48:21;72017.03;;;-142.70;77.24
6224;BME280;3145;42.726;23.342;2023-06-22T01:50:48;72013.00;;;-142.70;77.27
6224;BME280;3145;42.726;23.342;2023-06-22T01:53:15;72033.13;;;-142.70;76.14
6224;BME280;3145;42.726;23.342;2023-06-22T01:55:42;72037.16;;;-142.70;76.20
6224;BME280;3145;42.726;23.342;2023-06-22T01:58:08;72037.16;;;-142.70;76.53
6224;BME280;3145;42.726;23.342;2023-06-22T02:00:37;72037.16;;;-142.70;76.71
6224;BME280;3145;42.726;23.342;2023-06-22T02:03:10;72049.25;;;-142.70;76.95
6224;BME280;3145;42.726;23.342;2023-06-22T02:05:43;72045.22;;;-142.70;76.83
6224;BME280;3145;42.726;23.342;2023-06-22T02:08:15;72051.25;;;-142.70;77.00
6224;BME280;3145;42.726;23.342;2023-06-22T02:10:45;72049.25;;;-142.70;77.39
6224;BME280;3145;42.726;23.342;2023-06-22T02:13:13;72049.25;;;-142.70;77.51
6224;BME280;3145;42.726;23.342;2023-06-22T02:15:41;72043.19;;;-142.70;77.26
6224;BME280;3145;42.726;23.342;2023-06-22T02:18:10;72049.25;;;-142.70;77.60
6224;BME280;3145;42.726;23.342;2023-06-22T02:20:37;72053.28;;;-142.70;77.88
6224;BME280;3145;42.726;23.342;2023-06-22T02:23:05;72061.34;;;-142.70;78.17
6224;BME280;3145;42.726;23.342;2023-06-22T02:25:32;72059.31;;;-142.70;78.32
6224;BME280;3145;42.726;23.342;2023-06-22T02:27:59;72055.28;;;-142.70;78.41
6224;BME280;3145;42.726;23.342;2023-06-22T02:30:25;72057.31;;;-142.70;78.69
6224;BME280;3145;42.726;23.342;2023-06-22T02:32:52;72045.22;;;-142.70;79.11
6224;BME280;3145;42.726;23.342;2023-06-22T02:35:26;72051.25;;;-142.70;79.27
6224;BME280;3145;42.726;23.342;2023-06-22T02:37:56;72057.31;;;-142.70;79.19
6224;BME280;3145;42.726;23.342;2023-06-22T02:40:23;72069.38;;;-142.70;79.24
6224;BME280;3145;42.726;23.342;2023-06-22T02:42:50;72065.38;;;-142.70;79.56
6224;BME280;3145;42.726;23.342;2023-06-22T02:45:17;72069.38;;;-142.70;79.79
6224;BME280;3145;42.726;23.342;2023-06-22T02:47:43;72069.38;;;-142.70;79.98
6224;BME280;3145;42.726;23.342;2023-06-22T02:50:10;72077.44;;;-142.70;79.92
6224;BME280;3145;42.726;23.342;2023-06-22T02:52:38;72077.44;;;-142.70;79.94
6224;BME280;3145;42.726;23.342;2023-06-22T02:55:06;72069.38;;;-142.70;79.89
6224;BME280;3145;42.726;23.342;2023-06-22T02:57:33;72069.38;;;-142.70;79.99
6224;BME280;3145;42.726;23.342;2023-06-22T03:00:02;72069.38;;;-142.70;79.96
6224;BME280;3145;42.726;23.342;2023-06-22T03:02:32;72069.38;;;-142.70;79.54
6224;BME280;3145;42.726;23.342;2023-06-22T03:04:58;72073.41;;;-142.70;79.26
6224;BME280;3145;42.726;23.342;2023-06-22T03:07:26;72073.41;;;-142.70;79.19
6224;BME280;3145;42.726;23.342;2023-06-22T03:09:57;72077.44;;;-142.70;79.64
6224;BME280;3145;42.726;23.342;2023-06-22T03:12:23;72077.44;;;-142.70;79.62
6224;BME280;3145;42.726;23.342;2023-06-22T03:14:50;72069.38;;;-142.70;79.50
6224;BME280;3145;42.726;23.342;2023-06-22T03:17:17;72059.31;;;-142.70;79.22
6224;BME280;3145;42.726;23.342;2023-06-22T03:19:44;72045.22;;;-142.70;79.04
6224;BME280;3145;42.726;23.342;2023-06-22T03:22:11;72031.13;;;-142.70;78.54
6224;BME280;3145;42.726;23.342;2023-06-22T03:24:39;72025.06;;;-142.70;77.98
6224;BME280;3145;42.726;23.342;2023-06-22T03:27:07;72004.94;;;-142.70;77.41
6224;BME280;3145;42.726;23.342;2023-06-22T03:29:34;71992.84;;;-142.70;76.86
6224;BME280;3145;42.726;23.342;2023-06-22T03:32:00;71972.72;;;-142.70;76.04
6224;BME280;3145;42.726;23.342;2023-06-22T03:34:27;71974.72;;;-142.70;74.73
6224;BME280;3145;42.726;23.342;2023-06-22T03:36:54;71966.66;;;-142.70;74.53
6224;BME280;3145;42.726;23.342;2023-06-22T03:39:20;71946.53;;;-142.70;74.07
6224;BME280;3145;42.726;23.342;2023-06-22T03:41:47;71932.44;;;-142.70;72.60
6224;BME280;3145;42.726;23.342;2023-06-22T03:44:15;71908.25;;;-142.70;72.16
6224;BME280;3145;42.726;23.342;2023-06-22T03:46:42;71886.09;;;-142.70;70.66
6224;BME280;3145;42.726;23.342;2023-06-22T03:49:08;71874.00;;;-142.70;70.00
6224;BME280;3145;42.726;23.342;2023-06-22T03:51:35;71861.94;;;-142.70;68.92
6224;BME280;3145;42.726;23.342;2023-06-22T03:54:02;71855.88;;;-142.70;67.00
6224;BME280;3145;42.726;23.342;2023-06-22T03:56:29;71847.84;;;-142.70;67.29
6224;BME280;3145;42.726;23.342;2023-06-22T03:58:55;71831.72;;;-142.70;66.44
6224;BME280;3145;42.726;23.342;2023-06-22T04:01:23;71823.66;;;-142.70;64.66
6224;BME280;3145;42.726;23.342;2023-06-22T04:03:50;71831.72;;;-142.70;64.23
6224;BME280;3145;42.726;23.342;2023-06-22T04:06:17;71835.75;;;-142.70;64.66
6224;BME280;3145;42.726;23.342;2023-06-22T04:08:45;71849.84;;;-142.70;65.81
6224;BME280;3145;42.726;23.342;2023-06-22T04:11:16;71823.66;;;-142.70;66.17
6224;BME280;3145;42.726;23.342;2023-06-22T04:13:42;71791.44;;;-142.70;65.82
6224;BME280;3145;42.726;23.342;2023-06-22T04:16:09;71779.34;;;-142.70;64.56
6224;BME280;3145;42.726;23.342;2023-06-22T04:18:37;71769.28;;;-142.70;62.88
6224;BME280;3145;42.726;23.342;2023-06-22T04:21:04;71763.25;;;-142.70;61.36
6224;BME280;3145;42.726;23.342;2023-06-22T04:23:31;71739.06;;;-142.70;61.82
6224;BME280;3145;42.726;23.342;2023-06-22T04:25:58;71743.09;;;-142.70;60.46
6224;BME280;3145;42.726;23.342;2023-06-22T04:28:25;71702.81;;;-142.70;60.68
6224;BME280;3145;42.726;23.342;2023-06-22T04:30:52;71690.72;;;-142.70;60.66
6224;BME280;3145;42.726;23.342;2023-06-22T04:33:23;71668.59;;;-142.70;58.51
6224;BME280;3145;42.726;23.342;2023-06-22T04:35:51;71658.50;;;-142.70;58.33
6224;BME280;3145;42.726;23.342;2023-06-22T04:38:18;71638.38;;;-142.70;58.24
6224;BME280;3145;42.726;23.342;2023-06-22T04:40:46;71608.16;;;-142.70;57.76
6224;BME280;3145;42.726;23.342;2023-06-22T04:43:13;71588.03;;;-142.70;57.11
6224;BME280;3145;42.726;23.342;2023-06-22T04:45:40;71561.84;;;-142.70;55.90
6224;BME280;3145;42.726;23.342;2023-06-22T04:48:07;71525.59;;;-142.70;55.42
6224;BME280;3145;42.726;23.342;2023-06-22T04:50:35;71493.38;;;-142.70;53.46
6224;BME280;3145;42.726;23.342;2023-06-22T04:53:04;71461.16;;;-142.70;52.33
6224;BME280;3145;42.726;23.342;2023-06-22T04:55:31;71436.97;;;-142.70;50.58
6224;BME280;3145;42.726;23.342;2023-06-22T04:57:58;71404.75;;;-142.70;49.42
6224;BME280;3145;42.726;23.342;2023-06-22T05:00:30;71400.72;;;-142.70;48.72
6224;BME280;3145;42.726;23.342;2023-06-22T05:02:57;71422.88;;;-142.70;49.38
6224;BME280;3145;42.726;23.342;2023-06-22T05:05:24;71402.75;;;-142.70;49.98
6224;BME280;3145;42.726;23.342;2023-06-22T05:07:52;71372.53;;;-142.70;48.09
6224;BME280;3145;42.726;23.342;2023-06-22T05:10:21;71340.31;;;-142.70;47.29
6224;BME280;3145;42.726;23.342;2023-06-22T05:12:48;71328.22;;;-142.70;46.99
6224;BME280;3145;42.726;23.342;2023-06-22T05:15:15;71308.09;;;-142.70;46.87
6224;BME280;3145;42.726;23.342;2023-06-22T05:17:41;71310.09;;;-142.70;46.49
6224;BME280;3145;42.726;23.342;2023-06-22T05:20:09;71324.19;;;-142.70;46.13
6224;BME280;3145;42.726;23.342;2023-06-22T05:22:36;71291.97;;;-142.70;45.55
6224;BME280;3145;42.726;23.342;2023-06-22T05:25:04;71324.19;;;-142.70;46.26
6224;BME280;3145;42.726;23.342;2023-06-22T05:27:32;71271.84;;;-142.70;46.66
6224;BME280;3145;42.726;23.342;2023-06-22T05:29:59;71225.53;;;-142.70;45.58
6224;BME280;3145;42.726;23.342;2023-06-22T05:32:26;71185.25;;;-142.70;44.95
6224;BME280;3145;42.726;23.342;2023-06-22T05:34:53;71177.19;;;-142.70;43.33
6224;BME280;3145;42.726;23.342;2023-06-22T05:37:19;71257.75;;;-142.70;44.20
6224;BME280;3145;42.726;23.342;2023-06-22T05:39:46;71231.56;;;-142.70;44.85
6224;BME280;3145;42.726;23.342;2023-06-22T05:42:13;71197.34;;;-142.70;44.17
6224;BME280;3145;42.726;23.342;2023-06-22T05:44:41;71165.13;;;-142.70;44.32
6224;BME280;3145;42.726;23.342;2023-06-22T05:47:08;71138.94;;;-142.70;43.65
6224;BME280;3145;42.726;23.342;2023-06-22T05:49:35;71110.75;;;-142.70;42.93
6224;BME280;3145;42.726;23.342;2023-06-22T05:52:01;71090.63;;;-142.70;43.00
6224;BME280;3145;42.726;23.342;2023-06-22T05:54:28;71070.47;;;-142.70;42.55
6224;BME280;3145;42.726;23.342;2023-06-22T05:56:55;71038.25;;;-142.70;41.84
6224;BME280;3145;42.726;23.342;2023-06-22T05:59:22;71004.03;;;-142.70;41.27
6224;BME280;3145;42.726;23.342;2023-06-22T06:01:50;70989.94;;;-142.70;40.45
6224;BME280;3145;42.726;23.342;2023-06-22T06:04:17;70979.88;;;-142.70;41.58
6224;BME280;3145;42.726;23.342;2023-06-22T06:06:44;70989.94;;;-142.70;40.34
6224;BME280;3145;42.726;23.342;2023-06-22T06:09:12;71000.00;;;-142.70;40.86
6224;BME280;3145;42.726;23.342;2023-06-22T06:11:39;70961.75;;;-142.70;40.24
6224;BME280;3145;42.726;23.342;2023-06-22T06:14:06;70945.63;;;-142.70;39.51
6224;BME280;3145;42.726;23.342;2023-06-22T06:16:32;70941.59;;;-142.70;39.91
6224;BME280;3145;42.726;23.342;2023-06-22T06:19:00;70917.44;;;-142.70;39.97
6224;BME280;3145;42.726;23.342;2023-06-22T06:21:27;70879.19;;;-142.70;39.44
6224;BME280;3145;42.726;23.342;2023-06-22T06:23:54;70846.97;;;-142.70;38.81
6224;BME280;3145;42.726;23.342;2023-06-22T06:26:20;70828.84;;;-142.70;37.82
6224;BME280;3145;42.726;23.342;2023-06-22T06:28:55;70804.69;;;-142.70;38.11
6224;BME280;3145;42.726;23.342;2023-06-22T06:31:22;70804.69;;;-142.70;37.82
6224;BME280;3145;42.726;23.342;2023-06-22T06:33:49;70778.50;;;-142.70;37.87
6224;BME280;3145;42.726;23.342;2023-06-22T06:36:17;70792.59;;;-142.70;37.71
6224;BME280;3145;42.726;23.342;2023-06-22T06:38:44;70750.31;;;-142.70;37.43
6224;BME280;3145;42.726;23.342;2023-06-22T06:41:12;70712.06;;;-142.70;36.62
6224;BME280;3145;42.726;23.342;2023-06-22T06:43:39;70710.06;;;-142.70;36.35
6224;BME280;3145;42.726;23.342;2023-06-22T06:46:05;70736.22;;;-142.70;36.43
6224;BME280;3145;42.726;23.342;2023-06-22T06:48:32;70728.16;;;-142.70;36.74
6224;BME280;3145;42.726;23.342;2023-06-22T06:50:59;70800.66;;;-142.70;38.22
6224;BME280;3145;42.726;23.342;2023-06-22T06:53:27;70889.25;;;-142.70;39.12
6224;BME280;3145;42.726;23.342;2023-06-22T06:55:53;71054.38;;;-142.70;40.56
6224;BME280;3145;42.726;23.342;2023-06-22T06:58:20;71082.56;;;-142.70;41.53
6224;BME280;3145;42.726;23.342;2023-06-22T07:00:48;71106.72;;;-142.70;42.51
6224;BME280;3145;42.726;23.342;2023-06-22T07:03:15;71231.56;;;-142.70;46.13
6224;BME280;3145;42.726;23.342;2023-06-22T07:05:41;71195.31;;;-142.70;46.50
6224;BME280;3145;42.726;23.342;2023-06-22T07:08:08;71126.84;;;-142.70;44.94
6224;BME280;3145;42.726;23.342;2023-06-22T07:10:37;71086.59;;;-142.70;43.67
6224;BME280;3145;42.726;23.342;2023-06-22T07:13:03;71102.69;;;-142.70;43.76
6224;BME280;3145;42.726;23.342;2023-06-22T07:15:30;71074.50;;;-142.70;44.32
6224;BME280;3145;42.726;23.342;2023-06-22T07:17:57;71110.75;;;-142.70;43.87
6224;BME280;3145;42.726;23.342;2023-06-22T07:20:23;71082.56;;;-142.70;43.24
6224;BME280;3145;42.726;23.342;2023-06-22T07:22:51;71026.19;;;-142.70;42.61
6224;BME280;3145;42.726;23.342;2023-06-22T07:25:18;70965.75;;;-142.70;43.37
6224;BME280;3145;42.726;23.342;2023-06-22T07:27:56;70921.47;;;-142.70;42.59
6224;BME280;3145;42.726;23.342;2023-06-22T07:30:23;70925.50;;;-142.70;41.20
6224;BME280;3145;42.726;23.342;2023-06-22T07:32:49;70901.34;;;-142.70;41.44
6224;BME280;3145;42.726;23.342;2023-06-22T07:35:16;70903.34;;;-142.70;41.02
6224;BME280;3145;42.726;23.342;2023-06-22T07:37:43;70897.31;;;-142.70;41.69
6224;BME280;3145;42.726;23.342;2023-06-22T07:40:10;70889.25;;;-142.70;41.02
6224;BME280;3145;42.726;23.342;2023-06-22T07:42:37;70917.44;;;-142.70;41.37
6224;BME280;3145;42.726;23.342;2023-06-22T07:45:07;70927.50;;;-142.70;42.18
6224;BME280;3145;42.726;23.342;2023-06-22T07:47:34;70925.50;;;-142.70;42.05
6224;BME280;3145;42.726;23.342;2023-06-22T07:50:02;70865.09;;;-142.70;42.46
6224;BME280;3145;42.726;23.342;2023-06-22T07:52:29;70818.78;;;-142.70;41.35
6224;BME280;3145;42.726;23.342;2023-06-22T07:54:56;70788.56;;;-142.70;39.60
6224;BME280;3145;42.726;23.342;2023-06-22T07:57:22;70734.22;;;-142.70;39.89
6224;BME280;3145;42.726;23.342;2023-06-22T07:59:57;70780.53;;;-142.70;39.08
6224;BME280;3145;42.726;23.342;2023-06-22T08:02:25;70736.22;;;-142.70;40.66
6224;BME280;3145;42.726;23.342;2023-06-22T08:04:52;70653.69;;;-142.70;39.26
6224;BME280;3145;42.726;23.342;2023-06-22T08:07:19;70587.22;;;-142.70;37.78
6224;BME280;3145;42.726;23.342;2023-06-22T08:09:47;70540.94;;;-142.70;37.49
6224;BME280;3145;42.726;23.342;2023-06-22T08:12:14;70551.00;;;-142.70;37.30
6224;BME280;3145;42.726;23.342;2023-06-22T08:14:42;70478.50;;;-142.70;36.54
6224;BME280;3145;42.726;23.342;2023-06-22T08:17:09;70422.13;;;-142.70;36.52
6224;BME280;3145;42.726;23.342;2023-06-22T08:19:38;70395.97;;;-142.70;35.68
6224;BME280;3145;42.726;23.342;2023-06-22T08:22:05;70428.19;;;-142.70;35.42
6224;BME280;3145;42.726;23.342;2023-06-22T08:24:32;70438.25;;;-142.70;35.79
6224;BME280;3145;42.726;23.342;2023-06-22T08:26:59;70414.09;;;-142.70;36.38
6224;BME280;3145;42.726;23.342;2023-06-22T08:29:25;70422.13;;;-142.70;35.56
6224;BME280;3145;42.726;23.342;2023-06-22T08:31:52;70452.34;;;-142.70;36.17
6224;BME280;3145;42.726;23.342;2023-06-22T08:34:19;70462.41;;;-142.70;35.66
6224;BME280;3145;42.726;23.342;2023-06-22T08:36:50;70540.94;;;-142.70;37.89
6224;BME280;3145;42.726;23.342;2023-06-22T08:39:17;70518.78;;;-142.70;37.94
6224;BME280;3145;42.726;23.342;2023-06-22T08:41:44;70530.84;;;-142.70;36.81
6224;BME280;3145;42.726;23.342;2023-06-22T08:44:11;70514.75;;;-142.70;37.45
6224;BME280;3145;42.726;23.342;2023-06-22T08:46:38;70500.66;;;-142.70;36.54
6224;BME280;3145;42.726;23.342;2023-06-22T08:49:06;70462.41;;;-142.70;36.11
6224;BME280;3145;42.726;23.342;2023-06-22T08:51:33;70402.00;;;-142.70;36.00
6224;BME280;3145;42.726;23.342;2023-06-22T08:54:01;70371.81;;;-142.70;35.68
6224;BME280;3145;42.726;23.342;2023-06-22T08:56:28;70331.53;;;-142.70;33.79
6224;BME280;3145;42.726;23.342;2023-06-22T08:58:55;70426.16;;;-142.70;35.78
6224;BME280;3145;42.726;23.342;2023-06-22T09:01:22;70460.41;;;-142.70;35.96
6224;BME280;3145;42.726;23.342;2023-06-22T09:03:48;70567.09;;;-142.70;37.56
6224;BME280;3145;42.726;23.342;2023-06-22T09:06:19;70502.69;;;-142.70;37.37
6224;BME280;3145;42.726;23.342;2023-06-22T09:08:46;70518.78;;;-142.70;38.27
6224;BME280;3145;42.726;23.342;2023-06-22T09:11:14;70551.00;;;-142.70;38.03
6224;BME280;3145;42.726;23.342;2023-06-22T09:13:41;70587.22;;;-142.70;37.32
6224;BME280;3145;42.726;23.342;2023-06-22T09:16:08;70548.97;;;-142.70;37.26
6224;BME280;3145;42.726;23.342;2023-06-22T09:18:35;70561.06;;;-142.70;38.04
6224;BME280;3145;42.726;23.342;2023-06-22T09:21:01;70587.22;;;-142.70;38.88
6224;BME280;3145;42.726;23.342;2023-06-22T09:26:17;70605.34;;;-142.70;38.28
6224;BME280;3145;42.726;23.342;2023-06-22T09:31:47;70609.38;;;-142.70;37.72
6224;BME280;3145;42.726;23.342;2023-06-22T09:34:14;70563.06;;;-142.70;37.44
6224;BME280;3145;42.726;23.342;2023-06-22T09:36:41;70530.84;;;-142.70;38.01
6224;BME280;3145;42.726;23.342;2023-06-22T09:39:08;70514.75;;;-142.70;37.16
6224;BME280;3145;42.726;23.342;2023-06-22T09:41:36;70482.53;;;-142.70;37.34
6224;BME280;3145;42.726;23.342;2023-06-22T09:44:02;70500.66;;;-142.70;36.09
6224;BME280;3145;42.726;23.342;2023-06-22T09:46:29;70526.84;;;-142.70;36.36
6224;BME280;3145;42.726;23.342;2023-06-22T09:48:56;70518.78;;;-142.70;35.51
6224;BME280;3145;42.726;23.342;2023-06-22T09:51:23;70506.69;;;-142.70;35.74
6224;BME280;3145;42.726;23.342;2023-06-22T09:53:50;70538.91;;;-142.70;34.90
6224;BME280;3145;42.726;23.342;2023-06-22T09:56:17;70482.53;;;-142.70;35.16
6224;BME280;3145;42.726;23.342;2023-06-22T09:58:46;70454.34;;;-142.70;35.11
6224;BME280;3145;42.726;23.342;2023-06-22T10:01:15;70474.50;;;-142.70;36.36
6224;BME280;3145;42.726;23.342;2023-06-22T10:03:52;70492.59;;;-142.70;35.33
6224;BME280;3145;42.726;23.342;2023-06-22T10:06:24;70426.16;;;-142.70;35.48
6224;BME280;3145;42.726;23.342;2023-06-22T10:08:51;70389.94;;;-142.70;33.64
6224;BME280;3145;42.726;23.342;2023-06-22T10:11:18;70385.91;;;-142.70;33.72
6224;BME280;3145;42.726;23.342;2023-06-22T10:13:46;70389.94;;;-142.70;33.29
6224;BME280;3145;42.726;23.342;2023-06-22T10:16:13;70349.66;;;-142.70;33.66
6224;BME280;3145;42.726;23.342;2023-06-22T10:18:39;70285.25;;;-142.70;34.10
6224;BME280;3145;42.726;23.342;2023-06-22T10:21:06;70238.94;;;-142.70;33.87
6224;BME280;3145;42.726;23.342;2023-06-22T10:23:33;70196.66;;;-142.70;32.96
6224;BME280;3145;42.726;23.342;2023-06-22T10:25:59;70170.50;;;-142.70;32.39
6224;BME280;3145;42.726;23.342;2023-06-22T10:28:26;70134.25;;;-142.70;31.93
6224;BME280;3145;42.726;23.342;2023-06-22T10:30:54;70134.25;;;-142.70;31.29
6224;BME280;3145;42.726;23.342;2023-06-22T10:33:21;70108.09;;;-142.70;32.32
6224;BME280;3145;42.726;23.342;2023-06-22T10:35:48;70079.91;;;-142.70;31.71
6224;BME280;3145;42.726;23.342;2023-06-22T10:38:14;70057.75;;;-142.70;30.88
6224;BME280;3145;42.726;23.342;2023-06-22T10:40:41;70051.72;;;-142.70;30.78
6224;BME280;3145;42.726;23.342;2023-06-22T10:43:08;70071.84;;;-142.70;30.79
6224;BME280;3145;42.726;23.342;2023-06-22T10:45:35;70061.78;;;-142.70;31.23
6224;BME280;3145;42.726;23.342;2023-06-22T10:48:03;70073.88;;;-142.70;31.61
6224;BME280;3145;42.726;23.342;2023-06-22T10:50:30;70031.59;;;-142.70;30.50
6224;BME280;3145;42.726;23.342;2023-06-22T10:52:57;70021.53;;;-142.70;30.30
6224;BME280;3145;42.726;23.342;2023-06-22T10:55:24;70021.53;;;-142.70;29.82
6224;BME280;3145;42.726;23.342;2023-06-22T10:57:51;70005.41;;;-142.70;29.92
6224;BME280;3145;42.726;23.342;2023-06-22T11:00:18;70011.47;;;-142.70;30.35
6224;BME280;3145;42.726;23.342;2023-06-22T11:02:45;69979.25;;;-142.70;30.55
6224;BME280;3145;42.726;23.342;2023-06-22T11:05:13;70013.47;;;-142.70;29.89
6224;BME280;3145;42.726;23.342;2023-06-22T11:07:41;70031.59;;;-142.70;29.79
6224;BME280;3145;42.726;23.342;2023-06-22T11:10:09;70081.91;;;-142.70;30.92
6224;BME280;3145;42.726;23.342;2023-06-22T11:12:35;70083.94;;;-142.70;31.11
6224;BME280;3145;42.726;23.342;2023-06-22T11:15:03;70160.44;;;-142.70;31.69
6224;BME280;3145;42.726;23.342;2023-06-22T11:17:29;70261.09;;;-142.70;31.13
6224;BME280;3145;42.726;23.342;2023-06-22T11:19:56;70293.28;;;-142.70;32.57
6224;BME280;3145;42.726;23.342;2023-06-22T11:22:25;70297.31;;;-142.70;32.57
6224;BME280;3145;42.726;23.342;2023-06-22T11:24:52;70281.22;;;-142.70;32.65
6224;BME280;3145;42.726;23.342;2023-06-22T11:27:19;70251.03;;;-142.70;32.11
6224;BME280;3145;42.726;23.342;2023-06-22T11:29:46;70210.75;;;-142.70;32.17
6224;BME280;3145;42.726;23.342;2023-06-22T11:32:12;70220.81;;;-142.70;32.04
6224;BME280;3145;42.726;23.342;2023-06-22T11:34:39;70267.13;;;-142.70;32.39
6224;BME280;3145;42.726;23.342;2023-06-22T11:37:06;70335.56;;;-142.70;32.81
6224;BME280;3145;42.726;23.342;2023-06-22T11:39:34;70329.53;;;-142.70;33.53
6224;BME280;3145;42.726;23.342;2023-06-22T11:42:01;70297.31;;;-142.70;33.68
6224;BME280;3145;42.726;23.342;2023-06-22T11:44:28;70265.13;;;-142.70;32.54
6224;BME280;3145;42.726;23.342;2023-06-22T11:46:55;70273.16;;;-142.70;31.82
6224;BME280;3145;42.726;23.342;2023-06-22T11:49:21;70244.97;;;-142.70;31.98
6224;BME280;3145;42.726;23.342;2023-06-22T11:51:48;70265.13;;;-142.70;32.41
6224;BME280;3145;42.726;23.342;2023-06-22T11:54:15;70220.81;;;-142.70;31.60
6224;BME280;3145;42.726;23.342;2023-06-22T11:56:43;70192.63;;;-142.70;32.79
6224;BME280;3145;42.726;23.342;2023-06-22T11:59:10;70178.53;;;-142.70;32.11
6224;BME280;3145;42.726;23.342;2023-06-22T12:01:36;70164.44;;;-142.70;32.87
6224;BME280;3145;42.726;23.342;2023-06-22T12:04:03;70170.50;;;-142.70;32.66
6224;BME280;3145;42.726;23.342;2023-06-22T12:06:31;70156.41;;;-142.70;32.43
6224;BME280;3145;42.726;23.342;2023-06-22T12:08:57;70176.53;;;-142.70;32.61
6224;BME280;3145;42.726;23.342;2023-06-22T12:11:24;70188.63;;;-142.70;32.60
6224;BME280;3145;42.726;23.342;2023-06-22T12:13:52;70200.69;;;-142.70;32.93
6224;BME280;3145;42.726;23.342;2023-06-22T12:16:19;70210.75;;;-142.70;33.14
6224;BME280;3145;42.726;23.342;2023-06-22T12:18:47;70222.84;;;-142.70;33.18
6224;BME280;3145;42.726;23.342;2023-06-22T12:21:14;70271.16;;;-142.70;33.34
6224;BME280;3145;42.726;23.342;2023-06-22T12:23:40;70291.28;;;-142.70;34.57
6224;BME280;3145;42.726;23.342;2023-06-22T12:26:07;70347.66;;;-142.70;34.44
6224;BME280;3145;42.726;23.342;2023-06-22T12:28:34;70369.81;;;-142.70;35.11
6224;BME280;3145;42.726;23.342;2023-06-22T12:31:02;70422.13;;;-142.70;36.43
6224;BME280;3145;42.726;23.342;2023-06-22T12:33:29;70498.66;;;-142.70;38.52
6224;BME280;3145;42.726;23.342;2023-06-22T12:35:56;70551.00;;;-142.70;39.16
6224;BME280;3145;42.726;23.342;2023-06-22T12:38:22;70579.19;;;-142.70;38.81
6224;BME280;3145;42.726;23.342;2023-06-22T12:40:50;70619.44;;;-142.70;38.78
6224;BME280;3145;42.726;23.342;2023-06-22T12:43:17;70659.72;;;-142.70;39.11
6224;BME280;3145;42.726;23.342;2023-06-22T12:45:44;70704.00;;;-142.70;39.99
6224;BME280;3145;42.726;23.342;2023-06-22T12:48:12;70728.16;;;-142.70;40.24
6224;BME280;3145;42.726;23.342;2023-06-22T12:50:39;70770.44;;;-142.70;40.18
6224;BME280;3145;42.726;23.342;2023-06-22T12:53:06;70810.72;;;-142.70;40.25
6224;BME280;3145;42.726;23.342;2023-06-22T12:55:32;70814.75;;;-142.70;41.40
6224;BME280;3145;42.726;23.342;2023-06-22T12:57:59;70810.72;;;-142.70;41.66